createdAt,value
2019-05-01T00:02:33.122Z,55.10
2019-05-01T00:05:01.508Z,47.20
2019-05-01T00:07:29.900Z,50.47
2019-05-01T00:09:56.932Z,49.57
2019-05-01T00:12:23.606Z,47.50
2019-05-01T00:14:50.226Z,46.70
2019-05-01T00:17:17.402Z,37.33
2019-05-01T00:19:45.142Z,41.10
2019-05-01T00:22:11.843Z,42.47
2019-05-01T00:24:38.219Z,42.53
2019-05-01T00:27:04.821Z,56.30
2019-05-01T00:29:31.434Z,47.77
2019-05-01T00:31:58.039Z,56.57
2019-05-01T00:34:24.575Z,54.27
2019-05-01T00:36:51.066Z,51.40
2019-05-01T00:39:18.008Z,49.47
2019-05-01T00:41:44.679Z,53.40
2019-05-01T00:44:11.286Z,58.60
2019-05-01T00:46:37.846Z,52.83
2019-05-01T00:49:05.283Z,57.43
2019-05-01T00:51:32.068Z,52.27
2019-05-01T00:53:58.563Z,69.77
2019-05-01T00:56:27.175Z,50.87
2019-05-01T00:58:55.569Z,59.17
2019-05-01T01:01:23.996Z,56.53
2019-05-01T01:03:50.948Z,47.27
2019-05-01T01:06:17.587Z,62.07
2019-05-01T01:08:44.119Z,69.03
2019-05-01T01:11:11.309Z,57.40
2019-05-01T01:13:37.876Z,65.33
2019-05-01T01:16:04.567Z,64.13
2019-05-01T01:18:31.383Z,49.57
2019-05-01T01:20:58.120Z,69.90
2019-05-01T01:23:25.027Z,56.70
2019-05-01T01:25:51.618Z,55.80
2019-05-01T01:28:18.478Z,53.30
2019-05-01T01:30:55.599Z,52.43
2019-05-01T01:33:13.810Z,59.60
2019-05-01T01:35:40.438Z,60.03
2019-05-01T01:38:06.975Z,55.37
2019-05-01T01:40:34.325Z,52.27
2019-05-01T01:43:19.119Z,61.00
2019-05-01T01:45:47.761Z,66.57
2019-05-01T01:48:16.008Z,58.53
2019-05-01T01:50:44.126Z,56.50
2019-05-01T01:53:12.686Z,61.97
2019-05-01T01:55:39.572Z,61.30
2019-05-01T01:58:06.855Z,67.27
2019-05-01T02:00:40.983Z,58.00
2019-05-01T02:03:08.719Z,42.27
2019-05-01T02:05:37.385Z,48.53
2019-05-01T02:08:04.012Z,57.17
2019-05-01T02:10:42.387Z,62.63
2019-05-01T02:12:59.122Z,58.73
2019-05-01T02:15:25.628Z,58.00
2019-05-01T02:17:52.291Z,52.23
2019-05-01T02:20:20.900Z,58.83
2019-05-01T02:22:47.624Z,62.37
2019-05-01T02:25:15.757Z,51.73
2019-05-01T02:27:44.486Z,44.93
2019-05-01T02:30:13.140Z,55.23
2019-05-01T02:32:40.386Z,58.00
2019-05-01T02:35:07.281Z,52.27
2019-05-01T02:37:34.643Z,50.50
2019-05-01T02:40:04.241Z,50.60
2019-05-01T02:42:32.502Z,51.67
2019-05-01T02:45:00.631Z,49.63
2019-05-01T02:47:30.859Z,57.83
2019-05-01T02:50:09.667Z,47.37
2019-05-01T02:52:38.183Z,47.60
2019-05-01T02:55:09.577Z,56.43
2019-05-01T02:57:37.068Z,53.67
2019-05-01T03:00:08.641Z,47.43
2019-05-01T03:02:36.606Z,43.70
2019-05-01T03:05:04.272Z,38.03
2019-05-01T03:07:33.401Z,48.80
2019-05-01T03:10:02.358Z,50.07
2019-05-01T03:12:30.028Z,48.07
2019-05-01T03:15:00.103Z,42.13
2019-05-01T03:17:35.974Z,47.43
2019-05-01T03:20:08.805Z,48.53
2019-05-01T03:22:46.908Z,52.50
2019-05-01T03:25:14.422Z,46.27
2019-05-01T03:27:41.778Z,39.40
2019-05-01T03:30:08.679Z,48.30
2019-05-01T03:32:35.309Z,41.83
2019-05-01T03:35:03.296Z,46.63
2019-05-01T03:37:30.082Z,47.47
2019-05-01T03:39:57.057Z,45.13
2019-05-01T03:42:24.228Z,48.70
2019-05-01T03:44:50.929Z,53.80
2019-05-01T03:47:17.949Z,32.67
2019-05-01T03:49:44.898Z,62.17
2019-05-01T03:52:11.790Z,50.70
2019-05-01T03:54:38.929Z,53.80
2019-05-01T03:57:05.442Z,48.60
2019-05-01T03:59:32.215Z,55.43
2019-05-01T04:02:03.978Z,50.58
2019-05-01T04:04:31.853Z,53.57
2019-05-01T04:06:58.326Z,50.40
2019-05-01T04:09:24.714Z,53.47
2019-05-01T04:11:51.501Z,47.10
2019-05-01T04:14:19.835Z,46.27
2019-05-01T04:16:51.475Z,49.83
2019-05-01T04:19:18.296Z,58.17
2019-05-01T04:21:47.893Z,45.73
2019-05-01T04:24:14.560Z,53.57
2019-05-01T04:26:41.516Z,42.10
2019-05-01T04:29:16.125Z,45.70
2019-05-01T04:31:54.758Z,48.60
2019-05-01T04:34:39.775Z,39.17
2019-05-01T04:37:09.175Z,41.30
2019-05-01T04:39:35.945Z,44.93
2019-05-01T04:42:02.561Z,48.77
2019-05-01T04:44:30.325Z,45.40
2019-05-01T04:46:56.967Z,36.63
2019-05-01T04:49:23.612Z,49.80
2019-05-01T04:51:50.287Z,38.20
2019-05-01T04:54:17.129Z,45.57
2019-05-01T04:56:44.078Z,43.27
2019-05-01T04:59:10.466Z,50.97
2019-05-01T05:01:57.050Z,41.00
2019-05-01T05:04:22.771Z,44.33
2019-05-01T05:06:49.718Z,48.53
2019-05-01T05:09:16.857Z,42.53
2019-05-01T05:11:57.368Z,41.10
2019-05-01T05:14:25.963Z,35.87
2019-05-01T05:17:06.414Z,45.47
2019-05-01T05:19:33.098Z,44.23
2019-05-01T05:22:00.310Z,42.60
2019-05-01T05:24:26.942Z,40.53
2019-05-01T05:26:53.872Z,48.20
2019-05-01T05:29:22.057Z,43.93
2019-05-01T05:31:50.531Z,37.70
2019-05-01T05:34:23.659Z,41.90
2019-05-01T05:36:52.450Z,45.80
2019-05-01T05:39:22.454Z,38.37
2019-05-01T05:41:50.058Z,39.00
2019-05-01T05:44:16.659Z,43.80
2019-05-01T05:46:43.174Z,36.27
2019-05-01T05:49:09.828Z,39.83
2019-05-01T05:51:40.768Z,38.67
2019-05-01T05:54:25.982Z,37.83
2019-05-01T05:56:54.941Z,41.23
2019-05-01T05:59:26.645Z,40.70
2019-05-01T06:02:00.048Z,40.67
2019-05-01T06:04:29.189Z,41.27
2019-05-01T06:06:59.309Z,42.17
2019-05-01T06:09:29.386Z,42.27
2019-05-01T06:12:04.859Z,37.07
2019-05-01T06:14:51.223Z,39.23
2019-05-01T06:17:31.350Z,41.47
2019-05-01T06:20:00.749Z,41.67
2019-05-01T06:22:36.240Z,40.53
2019-05-01T06:25:06.707Z,40.40
2019-05-01T06:27:33.639Z,36.53
2019-05-01T06:30:00.578Z,37.63
2019-05-01T06:32:28.719Z,45.27
2019-05-01T06:34:58.448Z,34.07
2019-05-01T06:37:38.857Z,42.97
2019-05-01T06:40:06.332Z,30.43
2019-05-01T06:42:32.919Z,42.27
2019-05-01T06:45:01.205Z,41.33
2019-05-01T06:47:44.563Z,40.05
2019-05-01T06:50:25.535Z,40.17
2019-05-01T06:52:52.964Z,37.90
2019-05-01T06:55:22.441Z,37.27
2019-05-01T06:57:47.945Z,39.33
2019-05-01T07:00:16.610Z,36.40
2019-05-01T07:02:45.538Z,43.80
2019-05-01T07:05:14.762Z,29.73
2019-05-01T07:07:43.236Z,39.37
2019-05-01T07:10:10.306Z,33.57
2019-05-01T07:12:37.193Z,31.47
2019-05-01T07:15:07.054Z,36.83
2019-05-01T07:17:33.936Z,32.43
2019-05-01T07:20:11.862Z,38.83
2019-05-01T07:22:41.633Z,40.40
2019-05-01T07:25:08.003Z,41.50
2019-05-01T07:27:34.944Z,35.97
2019-05-01T07:30:06.792Z,34.70
2019-05-01T07:32:36.500Z,37.90
2019-05-01T07:35:03.974Z,31.83
2019-05-01T07:37:30.540Z,25.70
2019-05-01T07:39:57.461Z,26.47
2019-05-01T07:42:28.681Z,33.80
2019-05-01T07:45:03.773Z,25.07
2019-05-01T07:47:32.935Z,20.93
2019-05-01T07:50:03.315Z,29.43
2019-05-01T07:52:30.024Z,32.00
2019-05-01T07:54:57.226Z,33.83
2019-05-01T07:57:23.967Z,25.00
2019-05-01T07:59:51.034Z,27.37
2019-05-01T08:02:17.740Z,26.73
2019-05-01T08:04:44.501Z,29.80
2019-05-01T08:07:11.113Z,31.73
2019-05-01T08:09:37.975Z,26.30
2019-05-01T08:12:04.661Z,25.93
2019-05-01T08:14:31.196Z,19.07
2019-05-01T08:16:58.115Z,25.10
2019-05-01T08:19:26.579Z,23.33
2019-05-01T08:22:01.627Z,20.10
2019-05-01T08:24:26.818Z,21.03
2019-05-01T08:27:20.138Z,21.47
2019-05-01T08:41:27.085Z,24.10
2019-05-01T08:55:28.991Z,24.63
2019-05-01T09:00:50.016Z,22.17
2019-05-01T09:06:34.471Z,23.30
2019-05-01T09:09:02.977Z,19.37
2019-05-01T09:20:23.458Z,14.37
2019-05-01T09:32:04.976Z,11.47
2019-05-01T09:46:01.664Z,10.10
2019-05-01T09:51:37.128Z,12.93
2019-05-01T10:08:24.095Z,13.10
2019-05-01T10:11:07.060Z,11.03
2019-05-01T10:13:58.016Z,9.73
2019-05-01T10:19:16.328Z,10.10
2019-05-01T10:31:11.964Z,5.87
2019-05-01T10:36:49.897Z,9.33
2019-05-01T10:47:51.619Z,7.17
2019-05-01T10:56:13.679Z,5.77
2019-05-01T10:58:42.572Z,9.40
2019-05-01T11:06:59.573Z,11.07
2019-05-01T11:09:52.648Z,8.53
2019-05-01T11:21:10.943Z,8.90
2019-05-01T11:44:16.355Z,11.90
2019-05-01T11:46:52.471Z,8.73
2019-05-01T12:09:38.264Z,9.83
2019-05-01T12:12:13.774Z,13.30
2019-05-01T12:18:00.218Z,14.97
2019-05-01T12:20:41.117Z,9.43
2019-05-01T12:37:42.978Z,13.43
2019-05-01T12:43:08.080Z,10.93
2019-05-01T12:59:52.410Z,11.10
2019-05-01T13:02:20.889Z,12.00
2019-05-01T13:07:41.374Z,11.00
2019-05-01T13:24:03.914Z,12.80
2019-05-01T13:26:39.411Z,13.37
2019-05-01T13:29:22.856Z,11.40
2019-05-01T13:37:55.533Z,12.60
2019-05-01T14:09:17.586Z,18.80
2019-05-01T14:23:41.202Z,23.00
2019-05-01T14:26:12.060Z,18.53
2019-05-01T14:28:40.875Z,17.10
2019-05-01T14:31:09.622Z,27.77
2019-05-01T14:36:23.583Z,21.77
2019-05-01T14:38:51.960Z,27.37
2019-05-01T14:41:20.352Z,19.10
2019-05-01T14:43:47.725Z,23.60
2019-05-01T14:51:58.737Z,24.40
2019-05-01T14:54:29.401Z,17.40
2019-05-01T14:57:11.653Z,16.03
2019-05-01T14:59:44.116Z,22.47
2019-05-01T15:02:12.938Z,19.80
2019-05-01T15:10:23.834Z,25.57
2019-05-01T15:15:49.008Z,25.13
2019-05-01T15:27:11.443Z,21.97
2019-05-01T15:29:59.958Z,22.60
2019-05-01T15:55:19.106Z,20.93
2019-05-01T16:12:24.392Z,17.53
2019-05-01T16:14:56.119Z,18.83
2019-05-01T16:17:31.243Z,21.70
2019-05-01T16:22:52.797Z,19.30
2019-05-01T16:25:31.519Z,19.70
2019-05-01T16:28:09.933Z,31.90
2019-05-01T16:30:52.371Z,31.33
2019-05-01T16:33:24.673Z,28.23
2019-05-01T16:36:11.156Z,21.90
2019-05-01T16:38:57.170Z,18.10
2019-05-01T16:41:29.075Z,16.80
2019-05-01T16:44:00.082Z,21.87
2019-05-01T16:46:27.250Z,20.10
2019-05-01T16:51:44.450Z,36.27
2019-05-01T16:54:11.368Z,23.40
2019-05-01T16:56:41.735Z,15.77
2019-05-01T16:59:18.251Z,16.33
2019-05-01T17:01:59.329Z,22.53
2019-05-01T17:04:47.016Z,14.20
2019-05-01T17:13:14.298Z,19.17
2019-05-01T17:15:44.977Z,19.97
2019-05-01T17:18:15.795Z,22.43
2019-05-01T17:20:43.945Z,15.17
2019-05-01T17:31:48.982Z,14.70
2019-05-01T17:34:25.562Z,19.93
2019-05-01T17:36:53.379Z,23.23
2019-05-01T17:39:23.817Z,24.07
2019-05-01T17:41:57.579Z,17.70
2019-05-01T17:44:43.687Z,14.73
2019-05-01T17:50:16.397Z,14.58
2019-05-01T17:53:05.253Z,14.33
2019-05-01T17:58:22.727Z,12.60
2019-05-01T18:01:07.969Z,13.73
2019-05-01T18:03:55.323Z,17.57
2019-05-01T18:06:54.686Z,13.30
2019-05-01T18:09:23.563Z,14.43
2019-05-01T18:12:06.839Z,10.23
2019-05-01T18:17:34.370Z,8.90
2019-05-01T18:20:06.718Z,10.57
2019-05-01T18:22:40.438Z,10.93
2019-05-01T18:25:17.857Z,12.50
2019-05-01T18:28:07.193Z,12.23
2019-05-01T18:30:42.546Z,13.60
2019-05-01T18:35:56.708Z,13.10
2019-05-01T18:38:30.796Z,11.30
2019-05-01T18:46:55.487Z,11.90
2019-05-01T18:49:28.189Z,13.30
2019-05-01T18:52:06.874Z,15.43
2019-05-01T18:54:36.395Z,10.80
2019-05-01T18:59:51.882Z,6.57
2019-05-01T19:02:24.929Z,10.70
2019-05-01T19:04:54.958Z,6.03
2019-05-01T19:07:21.883Z,6.70
2019-05-01T19:15:32.650Z,5.93
2019-05-01T19:18:02.834Z,10.53
2019-05-01T19:20:35.991Z,10.63
2019-05-01T19:23:06.936Z,8.47
2019-05-01T19:25:45.721Z,6.50
2019-05-01T19:28:24.666Z,10.30
2019-05-01T19:30:56.705Z,8.37
2019-05-01T19:36:23.427Z,10.13
2019-05-01T19:41:43.589Z,12.13
2019-05-01T19:44:18.195Z,8.10
2019-05-01T19:46:44.668Z,12.40
2019-05-01T19:49:24.766Z,9.60
2019-05-01T19:52:00.752Z,7.83
2019-05-01T19:57:21.994Z,12.40
2019-05-01T19:59:50.989Z,13.70
2019-05-01T20:02:22.024Z,14.70
2019-05-01T20:04:57.914Z,10.30
2019-05-01T20:07:25.916Z,11.20
2019-05-01T20:12:53.111Z,12.97
2019-05-01T20:15:26.501Z,12.57
2019-05-01T20:18:01.945Z,10.60
2019-05-01T20:26:13.587Z,8.87
2019-05-01T20:28:47.150Z,11.33
2019-05-01T20:31:20.896Z,7.03
2019-05-01T20:33:50.520Z,11.57
2019-05-01T20:36:18.050Z,12.07
2019-05-01T20:38:48.628Z,20.00
2019-05-01T20:41:18.072Z,8.73
2019-05-01T20:46:37.699Z,13.73
2019-05-01T20:51:56.152Z,15.63
2019-05-01T20:54:26.985Z,11.27
2019-05-01T20:56:57.644Z,15.80
2019-05-01T21:02:15.213Z,14.57
2019-05-01T21:04:46.898Z,10.90
2019-05-01T21:07:21.337Z,12.77
2019-05-01T21:09:57.310Z,13.50
2019-05-01T21:12:25.969Z,9.70
2019-05-01T21:14:52.946Z,8.40
2019-05-01T21:17:21.427Z,14.50
2019-05-01T21:19:48.808Z,10.23
2019-05-01T21:22:23.406Z,8.13
2019-05-01T21:24:50.629Z,19.97
2019-05-01T21:27:21.039Z,15.60
2019-05-01T21:29:50.927Z,14.60
2019-05-01T21:32:26.170Z,13.10
2019-05-01T21:35:05.592Z,16.27
2019-05-01T21:40:20.374Z,12.10
2019-05-01T21:42:54.268Z,13.27
2019-05-01T21:45:33.398Z,20.10
2019-05-01T21:50:53.621Z,13.53
2019-05-01T21:53:29.723Z,13.57
2019-05-01T21:56:13.285Z,10.40
2019-05-01T22:01:34.705Z,19.23
2019-05-01T22:04:02.823Z,7.63
2019-05-01T22:09:38.209Z,19.30
2019-05-01T22:12:14.463Z,14.50
2019-05-01T22:14:58.192Z,6.40
2019-05-01T22:17:32.091Z,9.67
2019-05-01T22:20:01.370Z,14.67
2019-05-01T22:22:50.195Z,17.40
2019-05-01T22:25:20.230Z,12.40
2019-05-01T22:27:59.983Z,16.77
2019-05-01T22:30:42.301Z,14.03
2019-05-01T22:33:09.771Z,14.27
2019-05-01T22:35:45.456Z,14.80
2019-05-01T22:38:14.079Z,13.60
2019-05-01T22:40:50.421Z,14.90
2019-05-01T22:43:21.883Z,9.57
2019-05-01T22:45:48.874Z,14.70
2019-05-01T22:48:31.860Z,15.00
2019-05-01T22:51:05.492Z,22.57
2019-05-01T22:53:47.229Z,15.17
2019-05-01T22:56:21.854Z,13.67
2019-05-01T23:24:24.865Z,13.60
2019-05-01T23:32:30.489Z,17.23
2019-05-01T23:37:43.968Z,9.77
2019-05-01T23:40:18.275Z,14.87
2019-05-01T23:42:52.413Z,16.73
2019-05-01T23:48:23.582Z,13.57
2019-05-01T23:50:52.756Z,14.00
2019-05-01T23:53:19.985Z,11.00
2019-05-01T23:55:46.689Z,22.50
2019-05-01T23:58:29.815Z,11.57
